Time;durP1;ratioP1;P1;durP2;ratioP2;P2;SDS_P1;SDS_P2;PMS_P1;PMS_P2;Temp;Humidity;BMP_temperature;BMP_pressure;BME280_temperature;BME280_humidity;BME280_pressure;Samples;Min_cycle;Max_cycle;Signal;HPM_P1;HPM_P2
2022/05/12 00:00:47;;;;;;;3.10;0.80;;;;;;;13.46;74.91;101490.50;5073831;28;20051;-78
2022/05/12 00:03:14;;;;;;;3.88;0.80;;;;;;;13.44;75.14;101506.34;5047516;28;20098;-78
2022/05/12 00:05:40;;;;;;;4.13;0.65;;;;;;;13.44;75.44;101509.00;5039809;28;20048;-78
2022/05/12 00:08:05;;;;;;;3.40;0.68;;;;;;;13.41;75.27;101507.34;5071180;28;20374;-78
2022/05/12 00:10:30;;;;;;;4.10;0.73;;;;;;;13.40;75.01;101516.16;5068869;28;20348;-78
2022/05/12 00:12:58;;;;;;;2.13;0.70;;;;;;;13.38;75.50;101510.09;5055820;28;20025;-78
2022/05/12 00:15:26;;;;;;;0.90;0.65;;;;;;;13.36;75.28;101519.00;5036492;28;20154;-78
2022/05/12 00:17:52;;;;;;;4.28;0.95;;;;;;;13.35;75.32;101522.53;5052055;28;20099;-78
2022/05/12 00:20:19;;;;;;;1.95;0.70;;;;;;;13.33;74.90;101519.13;5064547;28;20079;-78
2022/05/12 00:22:45;;;;;;;1.50;0.65;;;;;;;13.31;75.02;101520.94;5059626;28;20375;-78
2022/05/12 00:25:21;;;;;;;2.13;1.10;;;;;;;13.29;75.03;101517.50;5065242;28;20025;-78
2022/05/12 00:27:47;;;;;;;1.17;0.90;;;;;;;13.27;75.06;101529.88;5073237;28;20039;-78
2022/05/12 00:30:13;;;;;;;2.00;1.00;;;;;;;13.25;75.12;101538.66;5054963;28;20600;-78
2022/05/12 00:32:41;;;;;;;2.55;1.20;;;;;;;13.23;74.95;101529.13;5060927;28;20159;-78
2022/05/12 00:35:08;;;;;;;1.38;0.80;;;;;;;13.21;75.46;101537.09;5078591;28;20074;-78
2022/05/12 00:37:33;;;;;;;2.88;1.02;;;;;;;13.19;75.04;101538.91;5060420;28;20040;-78
2022/05/12 00:39:59;;;;;;;2.47;0.98;;;;;;;13.17;74.89;101538.13;5068419;28;20044;-78
2022/05/12 00:42:24;;;;;;;1.27;0.90;;;;;;;13.15;75.07;101545.22;5074239;28;20227;-78
2022/05/12 00:44:50;;;;;;;4.53;1.30;;;;;;;13.13;74.99;101540.94;5057833;28;20064;-78
2022/05/12 00:47:16;;;;;;;5.95;1.17;;;;;;;13.10;74.80;101541.03;5029508;28;20329;-78
2022/05/12 00:49:43;;;;;;;1.80;1.27;;;;;;;13.09;75.11;101544.63;5046794;28;20048;-78
2022/05/12 00:52:14;;;;;;;980.28;45.53;;;;;;;13.07;74.90;101539.41;5064153;28;20098;-78
2022/05/12 00:54:55;;;;;;;51.00;3.78;;;;;;;13.06;74.98;101543.81;5046062;28;20095;-78
2022/05/12 00:57:28;;;;;;;18.88;2.03;;;;;;;13.05;74.94;101536.84;5077827;28;20044;-78
2022/05/12 00:59:56;;;;;;;3.53;1.10;;;;;;;13.03;74.81;101540.47;5052536;28;20032;-78
2022/05/12 01:04:57;;;;;;;2.88;1.20;;;;;;;13.00;74.58;101545.81;5047604;28;20090;-78
2022/05/12 01:07:22;;;;;;;0.70;0.70;;;;;;;12.99;74.53;101549.38;5061391;28;20036;-78
2022/05/12 01:09:47;;;;;;;0.95;0.77;;;;;;;12.97;74.32;101541.56;5055506;28;20232;-78
2022/05/12 01:12:13;;;;;;;2.70;0.90;;;;;;;12.97;74.29;101545.94;5041689;28;20036;-78
2022/05/12 01:14:39;;;;;;;2.08;1.13;;;;;;;12.96;74.46;101546.88;5049191;28;20317;-78
2022/05/12 01:17:05;;;;;;;2.58;0.80;;;;;;;12.95;74.57;101556.53;5075748;28;20036;-78
2022/05/12 01:19:33;;;;;;;1.30;0.90;;;;;;;12.95;74.74;101555.66;5076874;28;20120;-78
2022/05/12 01:22:00;;;;;;;0.70;0.70;;;;;;;12.92;74.45;101561.91;5077511;28;20104;-78
2022/05/12 01:24:33;;;;;;;1.85;0.77;;;;;;;12.93;74.53;101558.34;5059193;28;20044;-78
2022/05/12 01:27:19;;;;;;;1.50;0.80;;;;;;;12.91;74.41;101556.72;5071239;28;20109;-78
2022/05/12 01:29:47;;;;;;;0.75;0.65;;;;;;;12.89;74.49;101563.81;5065578;28;20090;-78
2022/05/12 01:32:12;;;;;;;1.73;0.93;;;;;;;12.87;74.63;101564.69;5054858;28;20040;-78
2022/05/12 01:34:37;;;;;;;1.27;0.60;;;;;;;12.86;74.78;101556.88;5048752;28;20040;-78
2022/05/12 01:37:03;;;;;;;3.03;0.98;;;;;;;12.85;74.59;101568.31;5048740;28;20121;-78
2022/05/12 01:39:28;;;;;;;1.73;0.98;;;;;;;12.83;75.10;101573.63;5040015;28;20032;-78
2022/05/12 01:41:54;;;;;;;1.17;0.75;;;;;;;12.81;74.98;101579.88;5068698;28;20067;-78
2022/05/12 01:44:19;;;;;;;0.77;0.70;;;;;;;12.79;75.43;101574.69;5076164;28;20071;-78
2022/05/12 01:46:45;;;;;;;1.15;0.88;;;;;;;12.78;75.17;101580.84;5075325;28;20305;-78
2022/05/12 01:49:10;;;;;;;1.33;1.00;;;;;;;12.76;75.53;101579.19;5039982;28;20253;-78
2022/05/12 01:51:38;;;;;;;2.75;0.98;;;;;;;12.74;75.98;101584.50;5034122;28;20233;-78
2022/05/12 01:54:04;;;;;;;3.22;0.98;;;;;;;12.72;75.85;101582.84;5043184;28;20066;-78
2022/05/12 01:56:30;;;;;;;2.22;1.05;;;;;;;12.70;75.64;101584.66;5042042;28;20396;-78
2022/05/12 01:58:55;;;;;;;2.17;1.00;;;;;;;12.68;75.98;101588.22;5042637;28;20045;-78
2022/05/12 02:01:21;;;;;;;2.28;1.08;;;;;;;12.67;76.36;101583.00;5044358;28;20044;-78
2022/05/12 02:03:46;;;;;;;2.00;1.25;;;;;;;12.63;76.31;101584.91;5051297;28;20218;-78
2022/05/12 02:06:11;;;;;;;3.33;1.30;;;;;;;12.62;75.57;101593.69;5048272;28;20050;-78
2022/05/12 02:08:37;;;;;;;3.70;1.10;;;;;;;12.62;75.15;101603.34;5060169;28;20075;-78
2022/05/12 02:11:02;;;;;;;2.67;0.95;;;;;;;12.62;75.31;101603.34;5042409;28;20029;-78
2022/05/12 02:13:28;;;;;;;1.52;1.10;;;;;;;12.61;74.77;101605.13;5041419;28;20066;-78
2022/05/12 02:15:56;;;;;;;2.90;1.15;;;;;;;12.62;75.22;101605.97;5070806;28;20044;-78
2022/05/12 02:18:22;;;;;;;1.33;1.20;;;;;;;12.62;75.32;101619.97;5041019;28;20117;-78
2022/05/12 02:20:48;;;;;;;2.00;1.10;;;;;;;12.60;75.60;101615.69;5046430;28;20041;-78
2022/05/12 02:23:13;;;;;;;3.20;1.30;;;;;;;12.59;75.75;101627.97;5055920;28;20041;-78
2022/05/12 02:25:39;;;;;;;1.70;1.50;;;;;;;12.56;75.46;101630.72;5058661;28;20044;-78
2022/05/12 02:28:04;;;;;;;1.40;1.30;;;;;;;12.56;75.80;101629.84;5048353;28;20032;-78
2022/05/12 02:30:31;;;;;;;1.70;1.33;;;;;;;12.55;75.62;101628.13;5055149;28;20044;-78
2022/05/12 02:32:56;;;;;;;3.30;1.50;;;;;;;12.55;75.00;101623.75;5067504;28;20055;-78
2022/05/12 02:35:23;;;;;;;3.28;1.70;;;;;;;12.56;74.91;101632.50;5065379;28;20336;-78
2022/05/12 02:37:49;;;;;;;1.95;1.52;;;;;;;12.55;74.57;101634.28;5063472;28;20086;-78
2022/05/12 02:40:17;;;;;;;3.30;1.85;;;;;;;12.56;74.33;101641.22;5066697;28;20310;-78
2022/05/12 02:42:42;;;;;;;2.33;1.70;;;;;;;12.56;75.12;101646.47;5072634;28;20043;-78
2022/05/12 02:45:08;;;;;;;2.35;1.60;;;;;;;12.56;75.04;101645.63;5064241;28;20385;-78
2022/05/12 02:47:34;;;;;;;2.22;1.73;;;;;;;12.56;74.78;101640.38;5053746;28;20090;-78
2022/05/12 02:49:59;;;;;;;2.20;1.88;;;;;;;12.54;75.05;101645.69;5057882;28;20111;-78
2022/05/12 02:52:25;;;;;;;2.17;1.83;;;;;;;12.54;75.40;101648.31;5045938;28;20057;-78
2022/05/12 02:54:50;;;;;;;2.60;2.00;;;;;;;12.54;75.29;101655.34;5052912;28;20431;-78
2022/05/12 02:57:16;;;;;;;2.50;2.00;;;;;;;12.52;75.66;101652.75;5050221;28;20028;-77
2022/05/12 02:59:41;;;;;;;4.85;1.80;;;;;;;12.49;75.52;101651.06;5055906;28;20029;-77
2022/05/12 03:02:07;;;;;;;3.72;2.42;;;;;;;12.49;75.48;101655.47;5043211;28;20143;-77
2022/05/12 03:04:33;;;;;;;2.88;1.80;;;;;;;12.47;75.29;101652.06;5054202;28;20037;-77
2022/05/12 03:06:58;;;;;;;2.10;1.73;;;;;;;12.46;75.06;101659.09;5038385;28;20104;-77
2022/05/12 03:09:24;;;;;;;3.47;1.85;;;;;;;12.44;74.75;101658.28;5042478;28;20052;-77
2022/05/12 03:11:49;;;;;;;2.47;1.95;;;;;;;12.45;74.85;101662.63;5022044;28;20249;-77
2022/05/12 03:14:14;;;;;;;2.20;2.00;;;;;;;12.44;74.85;101667.91;5021772;28;20068;-77
2022/05/12 03:16:40;;;;;;;3.30;1.70;;;;;;;12.44;74.75;101674.06;5039132;28;20119;-77
2022/05/12 03:19:06;;;;;;;3.13;2.30;;;;;;;12.42;74.86;101665.34;5038081;28;20041;-77
2022/05/12 03:21:31;;;;;;;2.53;2.25;;;;;;;12.41;75.05;101668.91;5050235;28;20104;-77
2022/05/12 03:23:57;;;;;;;2.88;1.67;;;;;;;12.41;75.06;101681.19;5037669;28;20075;-77
2022/05/12 03:26:23;;;;;;;3.65;2.20;;;;;;;12.40;75.27;101688.19;5049704;28;20344;-77
2022/05/12 03:28:48;;;;;;;4.60;1.90;;;;;;;12.39;75.43;101693.53;5051337;28;20236;-77
2022/05/12 03:31:14;;;;;;;3.03;2.15;;;;;;;12.36;75.38;101698.88;5054463;28;20227;-77
2022/05/12 03:33:39;;;;;;;2.25;2.05;;;;;;;12.34;75.51;101701.53;5054410;28;20044;-77
2022/05/12 03:36:09;;;;;;;2.65;2.03;;;;;;;12.32;75.75;101703.38;5055736;28;20047;-77
2022/05/12 03:38:35;;;;;;;2.85;1.92;;;;;;;12.29;75.61;101700.84;5055342;28;20115;-77
2022/05/12 03:41:00;;;;;;;3.17;1.90;;;;;;;12.28;75.71;101699.13;5054996;28;20028;-77
2022/05/12 03:46:12;;;;;;;3.40;2.30;;;;;;;12.24;75.71;101705.38;5020728;28;20256;-77
2022/05/12 03:48:39;;;;;;;4.85;2.40;;;;;;;12.22;75.86;101715.09;5050430;28;20337;-77
2022/05/12 03:51:06;;;;;;;5.03;2.13;;;;;;;12.19;76.00;101708.19;5037473;28;20091;-77
2022/05/12 03:53:32;;;;;;;2.28;1.80;;;;;;;12.18;75.59;101710.84;5072795;28;20052;-77
2022/05/12 03:55:58;;;;;;;2.47;1.92;;;;;;;12.16;75.96;101710.91;5057315;28;20035;-77
2022/05/12 03:58:24;;;;;;;2.63;2.10;;;;;;;12.14;75.79;101710.09;5059018;28;20032;-77
2022/05/12 04:00:50;;;;;;;6.07;2.00;;;;;;;12.12;75.81;101717.16;5042684;28;20056;-77
2022/05/12 04:03:16;;;;;;;2.28;1.90;;;;;;;12.10;75.50;101719.84;5048744;28;20021;-78
2022/05/12 04:05:41;;;;;;;5.70;2.00;;;;;;;12.09;75.82;101722.50;5023174;28;20033;-77
2022/05/12 04:08:07;;;;;;;3.53;2.28;;;;;;;12.07;75.87;101725.19;5067604;28;20115;-77
2022/05/12 04:10:32;;;;;;;2.40;1.95;;;;;;;12.07;75.89;101725.19;5058258;28;20036;-77
2022/05/12 04:12:58;;;;;;;5.00;1.58;;;;;;;12.05;75.92;101731.41;5073754;28;20045;-77
2022/05/12 04:15:23;;;;;;;2.67;1.83;;;;;;;12.03;75.94;101738.47;5058008;28;20104;-78
2022/05/12 04:18:00;;;;;;;2.00;1.70;;;;;;;12.02;75.87;101728.88;5064415;28;20118;-77
2022/05/12 04:20:31;;;;;;;4.25;1.65;;;;;;;12.01;75.70;101740.31;5073773;28;20107;-77
2022/05/12 04:22:57;;;;;;;1.70;1.60;;;;;;;11.98;75.69;101741.25;5050182;28;20044;-78
2022/05/12 04:25:24;;;;;;;5.50;2.25;;;;;;;11.97;75.53;101738.66;5058052;28;20108;-77
2022/05/12 04:27:49;;;;;;;4.47;1.85;;;;;;;11.96;76.03;101740.44;5045686;28;20040;-77
2022/05/12 04:30:17;;;;;;;2.83;2.15;;;;;;;11.95;75.56;101745.72;5071175;28;20045;-77
2022/05/12 04:32:43;;;;;;;4.32;1.80;;;;;;;11.94;75.92;101744.88;5076739;28;20089;-77
2022/05/12 04:35:12;;;;;;;2.10;1.90;;;;;;;11.92;75.80;101746.69;5076821;28;20064;-77
2022/05/12 04:37:38;;;;;;;;;;;;;;;11.90;75.81;101752.00;5069098;28;20338;-77
2022/05/12 04:40:21;;;;;;;2.90;1.85;;;;;;;11.90;75.89;101761.63;5071147;28;19923;-77
2022/05/12 04:42:49;;;;;;;3.65;1.58;;;;;;;11.89;75.64;101762.50;5055105;28;20283;-77
2022/05/12 04:45:16;;;;;;;2.63;1.50;;;;;;;11.87;75.35;101766.94;5074598;28;20032;-77
2022/05/12 04:47:43;;;;;;;4.28;1.63;;;;;;;11.85;75.37;101772.25;5073152;28;20052;-78
2022/05/12 04:50:13;;;;;;;3.42;2.05;;;;;;;11.86;75.01;101773.09;5053635;28;20041;-77
2022/05/12 04:52:38;;;;;;;3.30;1.63;;;;;;;11.84;74.84;101770.53;5069871;28;20048;-77
2022/05/12 04:55:04;;;;;;;1.83;1.50;;;;;;;11.85;74.86;101768.75;5042478;28;20039;-77
2022/05/12 04:57:37;;;;;;;2.33;1.35;;;;;;;11.85;74.79;101771.38;5057313;28;20066;-77
2022/05/12 05:00:05;;;;;;;4.20;1.88;;;;;;;11.86;74.58;101775.72;5067424;28;20244;-77
2022/05/12 05:02:30;;;;;;;3.63;1.70;;;;;;;11.86;75.15;101771.34;5075361;28;20044;-77
2022/05/12 05:04:55;;;;;;;2.22;1.50;;;;;;;11.86;75.03;101781.84;5041203;28;20035;-77
2022/05/12 05:07:22;;;;;;;3.33;1.83;;;;;;;11.88;75.09;101787.06;5058603;28;20028;-77
2022/05/12 05:09:48;;;;;;;5.93;1.88;;;;;;;11.88;75.13;101787.06;5053072;28;20394;-77
2022/05/12 05:12:13;;;;;;;3.20;1.55;;;;;;;11.88;75.07;101792.28;5031258;28;20112;-77
2022/05/12 05:14:39;;;;;;;2.47;1.80;;;;;;;11.88;74.80;101798.41;5042311;28;20322;-77
2022/05/12 05:17:04;;;;;;;3.00;1.85;;;;;;;11.90;75.04;101803.63;5056792;28;20036;-77
2022/05/12 05:19:31;;;;;;;2.63;1.38;;;;;;;11.90;74.86;101812.38;5064285;28;20359;-77
2022/05/12 05:21:56;;;;;;;3.53;1.30;;;;;;;11.90;74.35;101814.13;5062083;28;20317;-77
2022/05/12 05:24:22;;;;;;;1.45;1.35;;;;;;;11.89;74.22;101809.75;5066150;28;20045;-77
2022/05/12 05:26:47;;;;;;;1.92;1.45;;;;;;;11.92;74.40;101809.69;5074051;28;20050;-77
2022/05/12 05:29:13;;;;;;;1.85;1.70;;;;;;;11.92;74.57;101809.69;5076268;28;20377;-77
2022/05/12 05:31:38;;;;;;;5.97;2.05;;;;;;;11.91;74.01;101807.97;5057425;28;20075;-77
2022/05/12 05:34:04;;;;;;;2.13;1.90;;;;;;;11.90;74.35;101814.13;5055916;28;20043;-78
2022/05/12 05:36:29;;;;;;;2.00;1.67;;;;;;;11.89;74.63;101828.97;5057118;28;20040;-77
2022/05/12 05:38:55;;;;;;;3.25;1.60;;;;;;;11.92;74.62;101829.84;5064931;28;20055;-77
2022/05/12 05:41:20;;;;;;;1.50;1.40;;;;;;;11.91;74.38;101831.59;5051361;28;20068;-77
2022/05/12 05:43:46;;;;;;;4.68;1.42;;;;;;;11.92;73.53;101842.97;5047046;28;20033;-77
2022/05/12 05:46:11;;;;;;;4.13;1.55;;;;;;;11.92;73.96;101842.97;5013408;28;20288;-77
2022/05/12 05:48:37;;;;;;;2.22;1.67;;;;;;;11.92;74.83;101846.44;5045019;28;20176;-77
2022/05/12 05:53:46;;;;;;;1.80;1.38;;;;;;;11.90;75.34;101856.13;5053524;28;20064;-77
2022/05/12 05:56:14;;;;;;;3.47;1.80;;;;;;;11.91;75.55;101857.84;5054138;28;20033;-77
2022/05/12 05:58:42;;;;;;;1.50;1.40;;;;;;;11.92;75.47;101859.56;5053516;28;20120;-77
2022/05/12 06:01:08;;;;;;;4.75;1.50;;;;;;;11.92;75.99;101869.22;5039067;28;20328;-77
2022/05/12 06:03:34;;;;;;;5.30;2.30;;;;;;;11.92;76.17;101871.84;5049581;28;20029;-77
2022/05/12 06:05:59;;;;;;;4.47;2.03;;;;;;;11.93;75.39;101876.16;5041121;28;20045;-77
2022/05/12 06:08:25;;;;;;;4.43;1.55;;;;;;;11.93;75.53;101881.41;5048840;28;20037;-77
2022/05/12 06:10:50;;;;;;;7.72;1.60;;;;;;;11.93;75.08;101890.16;5057245;28;20036;-77
2022/05/12 06:13:16;;;;;;;2.75;1.55;;;;;;;11.92;74.95;101885.81;5059438;28;20041;-77
2022/05/12 06:15:42;;;;;;;3.58;2.08;;;;;;;11.92;76.17;101891.06;5053046;28;20048;-77
2022/05/12 06:18:16;;;;;;;3.40;1.73;;;;;;;11.92;76.39;101901.56;5053942;28;20040;-77
2022/05/12 06:20:43;;;;;;;2.72;1.88;;;;;;;11.92;76.68;101903.34;5053658;28;20412;-77
2022/05/12 06:23:10;;;;;;;3.45;1.77;;;;;;;11.92;76.59;101909.44;5052927;28;20082;-77
2022/05/12 06:25:36;;;;;;;3.17;1.60;;;;;;;11.93;76.26;101907.66;5046772;28;20041;-77
2022/05/12 06:28:02;;;;;;;2.35;2.00;;;;;;;11.94;75.99;101910.25;5039444;28;20037;-77
2022/05/12 06:30:29;;;;;;;5.47;1.70;;;;;;;11.92;75.86;101913.84;5027561;28;20404;-78
2022/05/12 06:32:56;;;;;;;4.63;2.10;;;;;;;11.94;75.86;101918.13;5044369;28;20071;-77
2022/05/12 06:35:23;;;;;;;4.68;2.13;;;;;;;11.92;76.71;101917.31;5042073;28;20025;-77
2022/05/12 06:37:48;;;;;;;3.15;1.52;;;;;;;11.91;76.82;101923.47;5039920;28;20049;-77
2022/05/12 06:40:14;;;;;;;5.10;1.60;;;;;;;11.94;75.87;101933.88;5029458;28;20040;-77
2022/05/12 06:42:41;;;;;;;6.70;1.60;;;;;;;11.94;76.31;101931.25;5028704;28;20067;-77
2022/05/12 06:45:09;;;;;;;4.60;1.80;;;;;;;11.96;75.94;101929.44;5026417;28;20030;-77
2022/05/12 06:47:34;;;;;;;4.07;2.33;;;;;;;11.93;76.59;101932.16;5044495;28;20068;-77
2022/05/12 06:50:02;;;;;;;5.28;1.73;;;;;;;11.97;76.73;101944.31;5052259;28;20044;-77
2022/05/12 06:52:28;;;;;;;3.15;2.00;;;;;;;12.00;76.69;101944.19;5058634;28;20057;-78
2022/05/12 06:54:54;;;;;;;5.60;2.00;;;;;;;11.99;76.23;101937.25;5039540;28;20036;-77
2022/05/12 06:57:21;;;;;;;3.45;1.50;;;;;;;12.03;75.86;101941.50;5049778;28;20159;-78
2022/05/12 06:59:47;;;;;;;2.05;1.85;;;;;;;12.05;75.33;101941.44;5043014;28;20276;-78
2022/05/12 07:02:12;;;;;;;3.47;1.95;;;;;;;12.05;76.38;101944.06;5044399;28;20037;-78
2022/05/12 07:04:38;;;;;;;5.05;2.17;;;;;;;12.07;76.57;101945.75;5043636;28;20029;-78
2022/05/12 07:07:05;;;;;;;2.92;1.90;;;;;;;12.08;76.30;101944.84;5065074;28;20032;-78
2022/05/12 07:09:31;;;;;;;4.25;1.73;;;;;;;12.10;75.09;101953.53;5041690;28;20329;-78
2022/05/12 07:11:57;;;;;;;2.50;1.20;;;;;;;12.11;74.19;101951.75;5050578;28;20220;-82
2022/05/12 07:14:22;;;;;;;6.60;2.03;;;;;;;12.12;74.27;101965.78;5057997;28;20041;-78
2022/05/12 07:16:48;;;;;;;5.72;1.10;;;;;;;12.13;73.62;101955.19;5070808;28;20032;-78
2022/05/12 07:19:15;;;;;;;1.27;1.10;;;;;;;12.13;73.23;101955.19;5066480;28;20060;-77
2022/05/12 07:27:13;;;;;;;5.70;2.15;;;;;;;12.19;75.28;101973.41;5072907;28;20035;-77
2022/05/12 07:29:39;;;;;;;3.25;1.67;;;;;;;12.23;73.87;101968.94;5029964;28;20358;-77
2022/05/12 07:32:05;;;;;;;5.93;2.13;;;;;;;12.25;74.71;101975.00;5051630;28;20036;-78
2022/05/12 07:34:30;;;;;;;3.40;2.25;;;;;;;12.24;75.43;101979.41;5065026;28;20111;-78
2022/05/12 07:36:56;;;;;;;4.90;2.22;;;;;;;12.27;75.40;101979.28;5028488;28;20387;-77
2022/05/12 07:39:28;;;;;;;4.78;2.00;;;;;;;12.32;75.21;101980.94;5055075;28;20111;-78
2022/05/12 07:41:55;;;;;;;3.50;1.95;;;;;;;12.34;74.30;101982.59;5054085;28;20060;-77
2022/05/12 07:44:21;;;;;;;5.20;1.60;;;;;;;12.33;72.53;101982.66;5056971;28;20029;-77
2022/05/12 07:46:48;;;;;;;3.35;1.30;;;;;;;12.34;72.13;101984.38;5033137;28;20064;-77
2022/05/12 07:49:14;;;;;;;2.55;1.30;;;;;;;12.37;72.52;101990.41;5071886;28;20043;-78
2022/05/12 07:51:40;;;;;;;5.13;1.90;;;;;;;12.39;72.05;101985.97;5052898;28;20039;-77
2022/05/12 07:54:05;;;;;;;6.80;1.67;;;;;;;12.41;72.26;101978.88;5073136;28;20048;-78
2022/05/12 07:56:31;;;;;;;2.38;1.67;;;;;;;12.44;72.29;101985.81;5052072;28;20028;-77
2022/05/12 07:58:58;;;;;;;2.58;1.23;;;;;;;12.47;72.09;101990.97;5049381;28;20029;-78
2022/05/12 08:01:26;;;;;;;3.47;1.30;;;;;;;12.51;71.93;101991.75;5051313;28;20032;-78
2022/05/12 08:03:52;;;;;;;2.45;1.15;;;;;;;12.53;71.73;101988.16;5071423;28;20025;-77
2022/05/12 08:06:18;;;;;;;2.95;1.40;;;;;;;12.55;71.67;101996.88;5050842;28;20051;-78
2022/05/12 08:08:46;;;;;;;7.68;2.17;;;;;;;12.57;71.69;101991.53;5070119;28;20313;-78
2022/05/12 08:11:12;;;;;;;3.63;1.42;;;;;;;12.60;70.86;101994.94;5068638;28;20029;-77
2022/05/12 08:13:39;;;;;;;5.13;2.47;;;;;;;12.62;70.57;102001.00;5057801;28;20116;-78
2022/05/12 08:16:05;;;;;;;6.50;1.52;;;;;;;12.65;70.51;101993.03;5058657;28;20047;-78
2022/05/12 08:18:32;;;;;;;4.13;1.20;;;;;;;12.67;67.47;102003.50;5057496;28;20225;-78
2022/05/12 08:20:58;;;;;;;5.28;1.10;;;;;;;12.68;67.57;102000.84;5073642;28;20318;-78
2022/05/12 08:23:24;;;;;;;2.30;0.82;;;;;;;12.72;68.81;101996.34;5068269;28;20047;-78
2022/05/12 08:25:50;;;;;;;4.35;1.00;;;;;;;12.75;69.01;102005.88;5052208;28;20232;-78
2022/05/12 08:28:21;;;;;;;2.85;1.02;;;;;;;12.77;69.06;101999.69;5054200;28;20033;-78
2022/05/12 08:30:49;;;;;;;1.75;0.70;;;;;;;12.79;68.49;102003.13;5072004;28;20099;-78
2022/05/12 08:33:14;;;;;;;3.60;0.82;;;;;;;12.82;67.97;102002.16;5069378;28;20063;-78
2022/05/12 08:35:42;;;;;;;3.22;1.15;;;;;;;12.86;66.73;102006.41;5050702;28;20215;-78
2022/05/12 08:38:08;;;;;;;2.47;0.80;;;;;;;12.87;65.23;102011.63;5062738;28;20316;-78
2022/05/12 08:41:18;;;;;;;3.10;1.25;;;;;;;12.94;66.11;102020.19;5054900;28;20303;-77
2022/05/12 08:43:43;;;;;;;6.05;0.98;;;;;;;12.98;65.37;102007.81;5068708;28;20036;-77
2022/05/12 08:46:14;;;;;;;2.92;0.90;;;;;;;13.01;66.74;102018.22;5069355;28;20056;-78
2022/05/12 08:48:43;;;;;;;2.55;1.00;;;;;;;13.03;67.07;102009.38;5069293;28;20122;-78
2022/05/12 08:51:12;;;;;;;3.10;1.17;;;;;;;13.05;66.51;102010.19;5070362;28;20197;-78
2022/05/12 08:53:47;;;;;;;3.10;0.80;;;;;;;13.06;67.45;102017.16;5062909;28;20045;-78
2022/05/12 08:56:13;;;;;;;2.25;0.68;;;;;;;13.10;67.59;102014.41;5068572;28;20114;-78
2022/05/12 08:58:40;;;;;;;3.53;1.20;;;;;;;13.13;67.63;102012.56;5039362;28;20032;-78
2022/05/12 09:01:22;;;;;;;3.47;1.30;;;;;;;13.18;66.98;102020.31;5070052;28;20099;-78
2022/05/12 09:04:11;;;;;;;2.30;1.15;;;;;;;13.23;66.96;102019.25;5051288;28;20041;-78
2022/05/12 09:06:51;;;;;;;2.40;1.15;;;;;;;13.30;67.79;102026.91;5071472;28;20028;-77
2022/05/12 09:09:26;;;;;;;1.83;0.93;;;;;;;13.31;67.58;102016.38;5066241;28;20241;-78
2022/05/12 09:13:00;;;;;;;4.88;1.33;;;;;;;13.35;66.06;102017.13;5053320;28;20130;-78
2022/05/12 09:15:34;;;;;;;6.40;1.20;;;;;;;13.38;66.93;102015.25;5033653;28;20045;-78
2022/05/12 09:18:16;;;;;;;3.03;1.00;;;;;;;13.40;66.99;102009.94;5019976;28;20283;-78
2022/05/12 09:20:42;;;;;;;3.22;1.17;;;;;;;13.39;66.35;102019.63;5044203;28;20052;-78
2022/05/12 09:23:07;;;;;;;2.45;0.98;;;;;;;13.43;66.63;102023.00;5033496;28;20078;-77
2022/05/12 09:25:43;;;;;;;4.10;1.10;;;;;;;13.46;65.23;102019.41;5062137;28;20032;-78
2022/05/12 09:28:34;;;;;;;4.78;1.17;;;;;;;13.48;65.80;102021.09;5052917;28;20127;-78
2022/05/12 09:31:15;;;;;;;2.55;1.17;;;;;;;13.50;65.93;102024.53;5063697;28;20024;-78
2022/05/12 09:33:43;;;;;;;5.68;1.10;;;;;;;13.54;66.18;102020.03;5064264;28;20093;-78
2022/05/12 09:36:16;;;;;;;3.38;1.40;;;;;;;13.57;65.35;102022.53;5065215;28;20040;-78
2022/05/12 09:38:44;;;;;;;4.07;1.35;;;;;;;13.58;64.20;102024.25;5050419;28;20403;-77
2022/05/12 09:41:22;;;;;;;2.50;1.70;;;;;;;13.60;64.90;102027.69;5048114;28;20020;-78
2022/05/12 09:43:53;;;;;;;2.87;1.30;;;;;;;13.60;64.39;102018.03;5069655;28;20036;-78
2022/05/12 09:46:22;;;;;;;1.50;1.00;;;;;;;13.63;64.78;102015.28;5074723;28;20035;-78
2022/05/12 09:48:49;;;;;;;4.55;1.58;;;;;;;13.67;64.27;102021.31;5065457;28;20032;-78
2022/05/12 09:51:22;;;;;;;1.92;1.20;;;;;;;13.71;64.84;102019.44;5068894;28;20367;-78
2022/05/12 09:53:54;;;;;;;5.20;1.17;;;;;;;13.74;65.42;102025.44;5066436;28;20378;-78
2022/05/12 09:56:31;;;;;;;2.28;1.20;;;;;;;13.75;63.18;102029.81;5051759;28;20020;-78
2022/05/12 09:59:16;;;;;;;2.75;1.20;;;;;;;13.75;62.51;102034.19;5069079;28;20037;-77
2022/05/12 10:02:06;;;;;;;2.92;1.23;;;;;;;13.77;61.77;102032.38;5039569;28;20048;-78
2022/05/12 10:10:22;;;;;;;5.18;1.35;;;;;;;13.81;61.81;102021.69;5067045;28;20090;-78
2022/05/12 10:13:19;;;;;;;4.10;0.90;;;;;;;13.81;62.44;102024.31;5066186;28;20096;-78
2022/05/12 10:15:45;;;;;;;2.58;1.02;;;;;;;13.83;62.02;102029.53;5064629;28;20040;-78
2022/05/12 10:18:34;;;;;;;3.70;1.20;;;;;;;13.83;63.72;102029.53;5052070;28;20226;-78
2022/05/12 10:21:23;;;;;;;2.95;0.90;;;;;;;13.85;63.89;102027.72;5049471;28;20077;-78
2022/05/12 10:23:56;;;;;;;3.10;1.10;;;;;;;13.83;61.34;102035.66;5059214;28;20410;-78
2022/05/12 10:26:31;;;;;;;2.03;0.90;;;;;;;13.83;64.08;102030.38;5059870;28;20402;-78
2022/05/12 10:29:05;;;;;;;2.88;1.17;;;;;;;13.86;63.88;102020.66;5058407;28;20113;-78
2022/05/12 10:31:46;;;;;;;1.83;1.17;;;;;;;13.90;61.40;102022.25;5067355;28;20282;-78
2022/05/12 10:34:38;;;;;;;2.00;0.80;;;;;;;13.95;62.60;102021.22;5059742;28;20386;-78
2022/05/12 10:37:22;;;;;;;5.45;1.20;;;;;;;14.06;59.71;102023.44;5043076;28;20202;-78
2022/05/12 10:39:57;;;;;;;2.90;1.23;;;;;;;14.09;58.51;102023.31;5066438;28;20033;-77
2022/05/12 10:42:42;;;;;;;4.22;1.02;;;;;;;14.19;59.34;102024.72;5052313;28;20029;-78
2022/05/12 10:45:19;;;;;;;3.42;0.90;;;;;;;14.20;59.85;102031.69;5051655;28;20155;-78
2022/05/12 10:48:03;;;;;;;1.38;0.90;;;;;;;14.25;61.34;102026.25;5067405;28;20035;-78
2022/05/12 10:50:37;;;;;;;5.47;1.35;;;;;;;14.31;62.22;102022.53;5064678;28;20252;-78
2022/05/12 10:53:42;;;;;;;3.80;1.55;;;;;;;14.42;59.88;102025.63;5067125;28;20072;-78
2022/05/12 10:56:41;;;;;;;2.88;1.33;;;;;;;14.49;59.84;102015.69;5048780;28;20224;-78
2022/05/12 10:59:28;;;;;;;2.42;1.10;;;;;;;14.62;60.73;102011.69;5048423;28;20040;-78
2022/05/12 11:02:15;;;;;;;2.47;1.00;;;;;;;14.68;61.72;102003.56;5073173;28;20378;-78
2022/05/12 11:04:48;;;;;;;2.67;0.93;;;;;;;14.73;61.86;102013.91;5048302;28;20036;-78
2022/05/12 11:07:28;;;;;;;4.10;1.00;;;;;;;14.76;58.88;102017.28;5069414;28;20048;-78
2022/05/12 11:10:13;;;;;;;3.55;1.20;;;;;;;14.75;58.99;102015.59;5070650;28;20060;-78
2022/05/12 11:12:45;;;;;;;8.15;1.20;;;;;;;14.78;58.23;102018.09;5049872;28;20355;-78
2022/05/12 11:15:21;;;;;;;1.63;1.08;;;;;;;14.82;58.79;102003.00;5067078;28;20075;-78
2022/05/12 11:17:58;;;;;;;2.72;1.15;;;;;;;14.84;59.40;102013.50;5056229;28;20037;-78
2022/05/12 11:20:36;;;;;;;5.10;1.48;;;;;;;14.90;58.32;102015.91;5070181;28;20063;-78
2022/05/12 11:23:26;;;;;;;11.33;0.90;;;;;;;14.97;57.25;102014.72;5071164;28;20052;-78
2022/05/12 11:26:06;;;;;;;2.47;0.80;;;;;;;14.99;56.88;102018.16;5053527;28;20036;-78
2022/05/12 11:31:43;;;;;;;2.15;0.88;;;;;;;15.01;59.01;102012.81;5070161;28;20477;-78
2022/05/12 11:34:14;;;;;;;3.67;1.20;;;;;;;15.01;58.51;102002.25;5074915;28;20028;-78
2022/05/12 11:36:43;;;;;;;3.50;1.20;;;;;;;14.98;57.13;102017.28;5063481;28;20040;-78
2022/05/12 11:39:33;;;;;;;1.92;1.15;;;;;;;14.97;57.12;102022.63;5047086;28;20036;-78
2022/05/12 11:42:06;;;;;;;1.98;1.10;;;;;;;14.94;58.55;102020.97;5069775;28;20348;-78
2022/05/12 11:44:39;;;;;;;6.43;1.35;;;;;;;14.91;57.58;102017.59;5066919;28;20036;-78
2022/05/12 11:47:19;;;;;;;2.08;1.05;;;;;;;14.88;58.72;102020.34;5046895;28;20586;-78
2022/05/12 11:50:16;;;;;;;1.88;0.82;;;;;;;14.85;57.59;102007.31;5062731;28;20337;-78
2022/05/12 11:53:09;;;;;;;3.47;1.10;;;;;;;14.92;57.27;102024.59;5067015;28;20053;-78
2022/05/12 11:55:54;;;;;;;2.58;0.90;;;;;;;14.99;59.01;102012.91;5055392;28;20036;-78
2022/05/12 11:58:38;;;;;;;4.15;1.23;;;;;;;15.04;57.94;102021.44;5076363;28;20044;-78